Huvudsida
METAR-TAF:

METAR-TAF

Flygplatser :

Belize International Airport

Belize City, Belize

latitud: 17-32N, longitud: 088-18W, höjd: 5 m

Aktuellt väderrapport

Denna rapport gjordes för 5 timmar och 56 minuter sedan, klockan 01:00 UTC
Vind 3 kt från sydost
Temperatur 25°C
Fuktighet 83%
Tryck 1014 hPa
Sikt 10 km eller mer
Inga moln under 1 500 m eller inga cumulonimbus

METAR: MZBZ 260100Z 13003KT CAVOK 25/22 A2996 Q1014 NOSIG

Tid: 00:56 (06:56 UTC)

Väderprognos

Denna rapport gjordes för 3 timmar och 56 minuter sedan, klockan 03:00 UTC
Prognos gäller från 26 kl. 06 UTC till 27 kl. 06 UTC
Vind 3 kt från nord
Sikt 10 km eller mer
Spridda moln på en höjd av 2400 ft
Blir
från 26 kl. 16 UTC till 26 kl. 18 UTC
Sannolikhet 30% :
Temporärt
från 26 kl. 16 UTC till 26 kl. 24 UTC
Sikt: 5000 m
Brutna moln på en höjd av 1500 ft
regnskurar

TAF: MZBZ 260300Z 2606/2706 35003KT 9999 SCT024 BECMG 2616/2618 PROB30 TEMPO 2616/2624 5000 SHRA BKN015

Aktuella väderrapporter och prognoser från 4000 flygplatser (METAR- och TAF-rapporter).

De tillgängliga stationerna syns som gula och röda prickar på kartan.

För musen över prickarna för att se namnen på stationerna.

Klicka sedan för att få väderrapporter och prognoser.

För att ändra kartan: Klicka på de gröna knapparna med ett svart kors på för att zooma in; den gröna knappen med ett streck på för att zooma ut; eller på de gröna pilarna för angränsande kartor.


METAR-TAF: